Time;durP1;ratioP1;P1;durP2;ratioP2;P2;SDS_P1;SDS_P2;PMS_P1;PMS_P2;Temp;Humidity;BMP_temperature;BMP_pressure;BME280_temperature;BME280_humidity;BME280_pressure;Samples;Min_cycle;Max_cycle;Signal;HPM_P1;HPM_P2
2023/10/08 00:02:22;;;;;;;;;;;;;;;29.83;33.03;97762.22;5017027;28;19925;-92
2023/10/08 00:04:51;;;;;;;;;;;;;;;30.56;29.17;97754.78;5016617;28;19976;-93
2023/10/08 00:07:21;;;;;;;;;;;;;;;30.12;30.25;97776.50;5016708;28;20395;-93
2023/10/08 00:09:53;;;;;;;;;;;;;;;29.37;30.58;97758.81;5005624;28;19925;-92
2023/10/08 00:12:20;;;;;;;;;;;;;;;29.02;31.72;97747.13;5017413;28;19918;-92
2023/10/08 00:14:49;;;;;;;;;;;;;;;28.84;31.84;97735.09;5016707;28;19991;-91
2023/10/08 00:17:17;;;;;;;;;;;;;;;28.33;32.54;97757.59;5017416;28;20012;-90
2023/10/08 00:19:43;;;;;;;;;;;;;;;28.60;33.36;97754.75;5016765;28;19972;-92
2023/10/08 00:22:10;;;;;;;;;;;;;;;29.01;31.47;97748.38;5010217;28;19925;-91
2023/10/08 00:24:40;;;;;;;;;;;;;;;29.88;31.94;97748.19;5009324;28;20461;-88
2023/10/08 00:27:07;;;;;;;;;;;;;;;30.24;31.32;97744.31;5013825;28;20374;-89
2023/10/08 00:29:33;;;;;;;;;;;;;;;29.60;31.22;97751.63;5014259;28;20014;-92
2023/10/08 00:32:11;;;;;;;;;;;;;;;29.19;32.16;97758.91;5016255;28;19932;-90
2023/10/08 00:34:43;;;;;;;;;;;;;;;29.28;33.81;97744.72;5015442;28;19926;-88
2023/10/08 00:37:14;;;;;;;;;;;;;;;28.88;32.00;97759.09;5015985;28;19921;-91
2023/10/08 00:39:40;;;;;;;;;;;;;;;29.99;30.44;97759.75;5014258;28;20344;-89
2023/10/08 00:42:09;;;;;;;;;;;;;;;30.51;29.61;97758.28;5010475;28;19922;-91
2023/10/08 00:44:47;;;;;;;;;;;;;;;30.17;30.12;97749.56;5006583;28;19925;-87
2023/10/08 00:47:14;;;;;;;;;;;;;;;29.60;31.33;97765.78;5009096;28;20377;-89
2023/10/08 00:54:51;;;;;;;;;;;;;;;29.54;32.53;97768.50;5005551;28;19928;-89
2023/10/08 00:57:21;;;;;;;;;;;;;;;28.43;33.52;97757.09;5007804;28;19928;-92
2023/10/08 00:59:52;;;;;;;;;;;;;;;28.95;33.13;97766.47;5004872;28;19922;-90
2023/10/08 01:02:23;;;;;;;;;;;;;;;29.85;31.97;97771.78;5012073;28;19978;-91
2023/10/08 01:04:50;;;;;;;;;;;;;;;28.72;34.44;97770.75;5007101;28;20020;-93
2023/10/08 01:07:18;;;;;;;;;;;;;;;28.58;35.13;97774.97;5007553;28;19948;-94
2023/10/08 01:09:49;;;;;;;;;;;;;;;28.28;35.81;97778.75;5014210;28;19962;-89
2023/10/08 01:14:47;;;;;;;;;;;;;;;29.13;34.98;97781.34;5013337;28;19936;-91
2023/10/08 01:17:19;;;;;;;;;;;;;;;28.51;35.85;97780.94;5010089;28;19936;-89
2023/10/08 01:19:50;;;;;;;;;;;;;;;27.82;37.88;97777.88;5006788;28;19921;-88
2023/10/08 01:22:21;;;;;;;;;;;;;;;28.63;36.23;97768.75;5007221;28;19922;-89
2023/10/08 01:24:48;;;;;;;;;;;;;;;29.15;35.24;97778.06;5010205;28;19967;-90
2023/10/08 01:27:21;;;;;;;;;;;;;;;29.49;34.71;97763.47;5012297;28;19932;-91
2023/10/08 01:29:50;;;;;;;;;;;;;;;29.88;34.03;97767.22;5009377;28;19921;-91
2023/10/08 01:32:16;;;;;;;;;;;;;;;30.36;32.98;97777.31;5012648;28;19925;-89
2023/10/08 01:34:45;;;;;;;;;;;;;;;30.21;33.54;97776.44;5005432;28;19929;-91
2023/10/08 01:37:16;;;;;;;;;;;;;;;31.06;32.17;97775.56;5012908;28;19918;-90
2023/10/08 01:39:43;;;;;;;;;;;;;;;30.44;32.83;97772.81;5005090;28;19929;-90
2023/10/08 01:42:20;;;;;;;;;;;;;;;31.11;32.03;97769.19;5014487;28;20401;-90
2023/10/08 01:44:48;;;;;;;;;;;;;;;31.05;31.75;97771.16;5014029;28;19922;-90
2023/10/08 01:47:16;;;;;;;;;;;;;;;31.52;31.06;97780.72;5008160;28;20259;-89
2023/10/08 01:49:46;;;;;;;;;;;;;;;31.51;31.15;97785.63;5013559;28;20412;-90
2023/10/08 01:52:21;;;;;;;;;;;;;;;31.46;31.52;97788.38;5013423;28;19921;-90
2023/10/08 01:54:48;;;;;;;;;;;;;;;32.09;30.43;97779.78;5013930;28;19918;-89
2023/10/08 01:57:14;;;;;;;;;;;;;;;31.53;31.26;97774.53;5009128;28;20416;-89
2023/10/08 01:59:40;;;;;;;;;;;;;;;30.23;32.75;97798.59;5006736;28;19926;-89
2023/10/08 02:02:07;;;;;;;;;;;;;;;28.40;35.94;97793.97;5014689;28;20286;-89
2023/10/08 02:04:36;;;;;;;;;;;;;;;27.86;37.33;97800.31;5007825;28;19928;-90
2023/10/08 02:07:03;;;;;;;;;;;;;;;27.67;37.45;97799.47;5012477;28;20298;-91
2023/10/08 02:09:30;;;;;;;;;;;;;;;28.42;36.15;97797.13;5017433;28;19968;-90
2023/10/08 02:11:56;;;;;;;;;;;;;;;28.26;36.12;97792.56;5014109;28;19922;-91
2023/10/08 02:14:22;;;;;;;;;;;;;;;27.63;37.31;97792.41;5013221;28;19928;-88
2023/10/08 02:16:49;;;;;;;;;;;;;;;25.40;41.23;97802.41;5013465;28;19960;-92
2023/10/08 02:19:18;;;;;;;;;;;;;;;23.49;43.32;97818.09;5003364;28;19929;-90
2023/10/08 02:21:47;;;;;;;;;;;;;;;22.33;46.17;97831.72;5002572;28;19957;-90
2023/10/08 02:24:13;;;;;;;;;;;;;;;21.47;47.58;97819.59;5013768;28;20507;-89
2023/10/08 02:26:39;;;;;;;;;;;;;;;20.01;52.41;97839.28;5014139;28;20467;-85
2023/10/08 02:29:10;;;;;;;;;;;;;;;20.40;51.00;97833.34;5014225;28;20329;-88
2023/10/08 02:31:37;;;;;;;;;;;;;;;20.37;51.32;97826.63;5013640;28;19921;-89
2023/10/08 02:34:04;;;;;;;;;;;;;;;20.65;50.08;97826.25;5012374;28;20384;-89
2023/10/08 02:36:30;;;;;;;;;;;;;;;20.96;48.06;97829.84;5007602;28;19929;-88
2023/10/08 02:38:56;;;;;;;;;;;;;;;21.22;47.64;97829.13;5002302;28;19922;-91
2023/10/08 02:41:24;;;;;;;;;;;;;;;20.71;49.17;97832.19;5006926;28;19925;-89
2023/10/08 02:43:50;;;;;;;;;;;;;;;19.85;50.90;97848.19;5001622;28;20366;-89
2023/10/08 02:46:18;;;;;;;;;;;;;;;19.82;51.80;97851.78;5006478;28;20032;-87
2023/10/08 02:48:44;;;;;;;;;;;;;;;19.97;51.37;97832.97;5009422;28;19961;-87
2023/10/08 02:51:16;;;;;;;;;;;;;;;19.63;51.73;97854.34;5011381;28;20447;-89
2023/10/08 02:53:43;;;;;;;;;;;;;;;20.02;50.37;97862.38;5009971;28;20016;-88
2023/10/08 02:56:13;;;;;;;;;;;;;;;20.46;49.73;97843.66;5000208;28;19921;-89
2023/10/08 02:58:39;;;;;;;;;;;;;;;20.22;50.64;97850.25;5001232;28;19925;-89
2023/10/08 03:01:05;;;;;;;;;;;;;;;21.31;47.00;97851.72;5005300;28;20357;-89
2023/10/08 03:03:32;;;;;;;;;;;;;;;22.47;43.72;97840.63;5012089;28;20341;-88
2023/10/08 03:05:58;;;;;;;;;;;;;;;21.80;44.74;97849.38;5011648;28;19928;-89
2023/10/08 03:08:24;;;;;;;;;;;;;;;21.89;44.56;97858.06;5006487;28;19925;-89
2023/10/08 03:10:55;;;;;;;;;;;;;;;20.95;46.02;97869.34;4996423;28;20008;-87
2023/10/08 03:13:26;;;;;;;;;;;;;;;20.58;48.04;97884.16;5007787;28;19917;-90
2023/10/08 03:18:35;;;;;;;;;;;;;;;24.61;38.21;97861.31;5011558;28;20020;-90
2023/10/08 03:21:04;;;;;;;;;;;;;;;22.16;42.89;97874.78;5009103;28;19927;-90
2023/10/08 03:23:34;;;;;;;;;;;;;;;24.30;37.63;97874.97;5003815;28;19932;-90
2023/10/08 03:26:10;;;;;;;;;;;;;;;24.15;37.70;97868.16;5016356;28;19918;-90
2023/10/08 03:28:37;;;;;;;;;;;;;;;26.53;33.63;97878.25;5015830;28;20019;-93
2023/10/08 03:31:13;;;;;;;;;;;;;;;28.36;30.97;97863.94;5003687;28;19937;-93
2023/10/08 03:33:40;;;;;;;;;;;;;;;27.59;31.07;97876.34;5000261;28;19922;-91
2023/10/08 03:36:27;;;;;;;;;;;;;;;28.30;30.32;97883.56;5012810;28;19928;-92
2023/10/08 03:38:53;;;;;;;;;;;;;;;28.80;29.10;97889.91;5010494;28;19922;-92
2023/10/08 03:41:28;;;;;;;;;;;;;;;29.04;28.84;97888.78;5015094;28;19917;-92
2023/10/08 03:44:06;;;;;;;;;;;;;;;29.17;28.78;97885.81;5016528;28;19921;-92
2023/10/08 03:46:39;;;;;;;;;;;;;;;29.77;27.63;97877.34;5005499;28;19917;-93
2023/10/08 03:49:11;;;;;;;;;;;;;;;29.43;27.91;97887.81;4999499;28;19925;-92
2023/10/08 03:51:40;;;;;;;;;;;;;;;28.84;28.75;97888.50;5007398;28;19921;-92
2023/10/08 03:56:41;;;;;;;;;;;;;;;28.86;28.75;97907.81;5016257;28;19917;-92
2023/10/08 03:59:12;;;;;;;;;;;;;;;27.56;30.64;97931.69;5015857;28;19926;-93
2023/10/08 04:01:39;;;;;;;;;;;;;;;28.24;29.63;97935.47;5015927;28;19921;-92
2023/10/08 04:04:06;;;;;;;;;;;;;;;26.81;31.85;97951.75;5015485;28;19921;-91
2023/10/08 04:14:18;;;;;;;;;;;;;;;25.71;33.49;97974.19;5016892;28;20389;-93
2023/10/08 04:16:44;;;;;;;;;;;;;;;26.52;32.41;97977.25;5016185;28;19921;-93
2023/10/08 04:19:10;;;;;;;;;;;;;;;26.12;32.55;97990.22;5016014;28;20373;-93
2023/10/08 04:21:37;;;;;;;;;;;;;;;26.82;31.57;98013.25;5016697;28;20008;-93
2023/10/08 04:24:03;;;;;;;;;;;;;;;27.90;30.07;98013.38;5015574;28;20344;-94
2023/10/08 04:26:31;;;;;;;;;;;;;;;28.78;28.65;98017.53;5033373;28;19917;-94
2023/10/08 04:28:58;;;;;;;;;;;;;;;29.31;27.81;98012.47;5032909;28;19921;-94
2023/10/08 04:31:28;;;;;;;;;;;;;;;29.82;27.20;98009.75;5016703;28;19930;-93
2023/10/08 04:34:00;;;;;;;;;;;;;;;29.28;28.02;98027.53;5015772;28;19953;-93
2023/10/08 04:36:26;;;;;;;;;;;;;;;29.03;27.93;98044.75;5015991;28;20444;-93
2023/10/08 04:38:54;;;;;;;;;;;;;;;29.30;27.88;98050.47;5016435;28;19917;-91
2023/10/08 04:41:27;;;;;;;;;;;;;;;27.47;29.99;98063.38;5016376;28;20374;-92
2023/10/08 04:43:55;;;;;;;;;;;;;;;25.40;33.07;98075.06;5034410;28;20246;-92
2023/10/08 04:46:46;;;;;;;;;;;;;;;22.82;39.20;98091.09;5017131;28;19925;-91
2023/10/08 04:49:28;;;;;;;;;;;;;;;24.25;36.11;98094.34;5015115;28;19922;-89
2023/10/08 04:51:58;;;;;;;;;;;;;;;22.36;38.71;98088.97;5015903;28;19925;-88
2023/10/08 04:54:24;;;;;;;;;;;;;;;24.80;33.65;98082.25;5016110;28;19979;-92
2023/10/08 04:56:52;;;;;;;;;;;;;;;24.17;34.42;98092.94;5007991;28;19922;-89
2023/10/08 04:59:22;;;;;;;;;;;;;;;23.29;35.99;98100.28;5007808;28;19921;-89
2023/10/08 05:01:48;;;;;;;;;;;;;;;23.45;36.20;98099.63;4997823;28;19926;-90
2023/10/08 05:04:23;;;;;;;;;;;;;;;25.76;32.43;98103.00;4996008;28;19964;-90
2023/10/08 05:17:21;;;;;;;;;;;;;;;27.88;28.85;98133.59;5015538;28;19918;-91
2023/10/08 05:20:01;;;;;;;;;;;;;;;28.43;27.92;98146.06;5013414;28;20051;-91
2023/10/08 05:27:57;;;;;;;;;;;;;;;28.39;27.81;98148.25;4992622;28;19937;-88
2023/10/08 05:30:28;;;;;;;;;;;;;;;28.11;28.35;98169.09;5010985;28;20015;-89
2023/10/08 05:38:34;;;;;;;;;;;;;;;28.64;28.03;98148.09;5014529;28;19917;-91
2023/10/08 05:43:48;;;;;;;;;;;;;;;28.49;28.12;98158.38;5014891;28;19922;-89
2023/10/08 05:49:00;;;;;;;;;;;;;;;28.25;28.12;98180.66;5013310;28;19922;-88
2023/10/08 05:54:24;;;;;;;;;;;;;;;28.12;28.51;98218.66;5002306;28;19924;-89
2023/10/08 05:57:07;;;;;;;;;;;;;;;27.59;28.98;98221.28;5012131;28;19922;-86
2023/10/08 05:59:53;;;;;;;;;;;;;;;27.63;28.99;98216.31;5013152;28;19921;-87
2023/10/08 06:13:02;;;;;;;;;;;;;;;26.23;31.72;98256.06;5010059;28;20374;-86
2023/10/08 06:15:44;;;;;;;;;;;;;;;27.14;30.08;98263.03;5000597;28;20012;-87
2023/10/08 06:18:10;;;;;;;;;;;;;;;27.34;29.57;98270.03;5007535;28;19921;-87
2023/10/08 06:20:39;;;;;;;;;;;;;;;27.69;29.01;98267.31;5011230;28;20059;-87
2023/10/08 06:23:07;;;;;;;;;;;;;;;28.17;28.63;98257.63;5012136;28;20381;-88
2023/10/08 06:25:44;;;;;;;;;;;;;;;27.86;28.65;98263.91;5012404;28;19928;-88
2023/10/08 06:28:19;;;;;;;;;;;;;;;27.71;28.93;98276.91;5013150;28;19922;-91
2023/10/08 06:30:46;;;;;;;;;;;;;;;27.98;28.63;98288.44;5007432;28;19926;-88
2023/10/08 06:33:13;;;;;;;;;;;;;;;27.97;28.66;98284.06;5008609;28;20004;-90
2023/10/08 06:35:44;;;;;;;;;;;;;;;27.56;29.28;98295.53;5004977;28;20337;-91
2023/10/08 06:38:11;;;;;;;;;;;;;;;27.69;28.94;98309.63;5003631;28;19930;-91
2023/10/08 06:43:11;;;;;;;;;;;;;;;27.67;28.85;98312.91;5012883;28;19928;-88
2023/10/08 06:45:39;;;;;;;;;;;;;;;27.83;28.90;98318.41;5011051;28;20327;-88
2023/10/08 06:48:06;;;;;;;;;;;;;;;27.83;28.79;98321.22;5005602;28;19944;-90
2023/10/08 06:50:40;;;;;;;;;;;;;;;28.21;28.44;98318.34;5005721;28;19922;-89
2023/10/08 06:53:07;;;;;;;;;;;;;;;28.06;28.65;98315.22;5000524;28;20293;-87
2023/10/08 06:55:35;;;;;;;;;;;;;;;27.84;29.11;98322.78;5010421;28;20016;-88
2023/10/08 06:58:05;;;;;;;;;;;;;;;27.93;28.80;98322.13;5007799;28;19967;-90
2023/10/08 07:00:38;;;;;;;;;;;;;;;28.18;28.59;98322.09;5009408;28;19928;-87
2023/10/08 07:03:07;;;;;;;;;;;;;;;28.30;28.39;98334.59;5010449;28;19940;-89
2023/10/08 07:05:40;;;;;;;;;;;;;;;28.31;28.42;98324.88;5004334;28;19921;-87
2023/10/08 07:08:07;;;;;;;;;;;;;;;28.47;28.35;98341.66;5013241;28;19922;-87
2023/10/08 07:10:37;;;;;;;;;;;;;;;28.41;28.65;98346.28;5012084;28;19925;-89
2023/10/08 07:13:03;;;;;;;;;;;;;;;27.61;29.52;98368.28;5003940;28;20455;-89
2023/10/08 07:15:30;;;;;;;;;;;;;;;28.11;28.77;98361.06;5018493;28;19928;-87
2023/10/08 07:17:56;;;;;;;;;;;;;;;28.28;28.57;98360.47;5004507;28;19922;-88
2023/10/08 07:20:22;;;;;;;;;;;;;;;28.51;28.39;98342.31;5003378;28;19928;-90
2023/10/08 07:22:54;;;;;;;;;;;;;;;29.02;27.51;98346.50;4997932;28;20033;-88
2023/10/08 07:25:21;;;;;;;;;;;;;;;28.63;27.89;98355.63;5012755;28;19922;-90
2023/10/08 07:27:47;;;;;;;;;;;;;;;28.39;28.80;98358.06;5007169;28;19943;-90
2023/10/08 07:30:13;;;;;;;;;;;;;;;28.19;28.82;98359.59;5009913;28;20373;-89
2023/10/08 07:32:47;;;;;;;;;;;;;;;27.99;29.01;98369.09;5012111;28;20013;-90
2023/10/08 07:37:47;;;;;;;;;;;;;;;27.71;29.63;98386.94;5013007;28;19918;-88
2023/10/08 07:40:13;;;;;;;;;;;;;;;27.58;29.94;98383.31;5018670;28;19917;-91
2023/10/08 07:42:40;;;;;;;;;;;;;;;27.15;30.49;98388.63;5016338;28;19937;-90
2023/10/08 07:45:06;;;;;;;;;;;;;;;27.87;30.04;98375.53;5009222;28;19918;-91
2023/10/08 07:47:32;;;;;;;;;;;;;;;26.94;30.98;98383.63;5014272;28;19921;-90
2023/10/08 07:50:11;;;;;;;;;;;;;;;26.30;31.94;98371.25;5013267;28;20415;-89
2023/10/08 07:52:37;;;;;;;;;;;;;;;26.36;32.13;98386.41;5015867;28;20071;-93
2023/10/08 07:55:07;;;;;;;;;;;;;;;26.19;31.96;98384.81;5007098;28;20263;-92
2023/10/08 07:57:33;;;;;;;;;;;;;;;26.84;31.50;98393.19;5004676;28;19921;-92
2023/10/08 08:00:18;;;;;;;;;;;;;;;27.06;30.80;98396.97;5008518;28;20297;-92
2023/10/08 08:02:44;;;;;;;;;;;;;;;27.16;30.79;98410.75;5012108;28;19941;-93
2023/10/08 08:05:16;;;;;;;;;;;;;;;27.18;30.55;98415.94;5020240;28;19921;-91
2023/10/08 08:07:45;;;;;;;;;;;;;;;27.64;30.95;98411.75;5013620;28;19928;-91
2023/10/08 08:10:11;;;;;;;;;;;;;;;27.86;29.97;98416.28;5010564;28;19925;-90
2023/10/08 08:12:37;;;;;;;;;;;;;;;27.83;29.97;98425.66;5012530;28;19921;-89
2023/10/08 08:15:14;;;;;;;;;;;;;;;27.53;31.09;98425.41;5014017;28;19918;-90
2023/10/08 08:17:41;;;;;;;;;;;;;;;28.26;29.98;98416.63;5015252;28;20008;-93
2023/10/08 08:20:17;;;;;;;;;;;;;;;27.16;31.49;98410.75;5010081;28;19929;-94
2023/10/08 08:22:50;;;;;;;;;;;;;;;27.71;31.18;98415.16;5013224;28;20024;-89
2023/10/08 08:25:26;;;;;;;;;;;;;;;26.79;32.77;98424.72;5008262;28;20039;-93
2023/10/08 08:27:53;;;;;;;;;;;;;;;26.56;32.40;98420.03;5009389;28;19929;-90
2023/10/08 08:30:19;;;;;;;;;;;;;;;26.34;32.82;98438.75;5012564;28;20389;-89
2023/10/08 08:32:49;;;;;;;;;;;;;;;26.94;31.94;98446.41;5013548;28;20051;-89
2023/10/08 08:35:19;;;;;;;;;;;;;;;25.72;33.50;98448.28;5011150;28;20404;-90
2023/10/08 08:37:46;;;;;;;;;;;;;;;26.27;32.54;98436.91;5014847;28;19925;-89
2023/10/08 08:40:18;;;;;;;;;;;;;;;27.66;31.88;98441.09;5015677;28;20393;-93
2023/10/08 08:42:45;;;;;;;;;;;;;;;27.22;31.36;98442.78;5008234;28;19932;-94
2023/10/08 08:45:13;;;;;;;;;;;;;;;26.95;32.20;98444.38;5014991;28;19968;-92
2023/10/08 08:47:42;;;;;;;;;;;;;;;25.91;32.45;98427.69;5003569;28;19926;-94
2023/10/08 08:50:08;;;;;;;;;;;;;;;25.84;33.56;98447.56;5013277;28;19945;-90
2023/10/08 08:52:38;;;;;;;;;;;;;;;24.93;34.42;98445.47;5012197;28;19935;-92
2023/10/08 08:55:09;;;;;;;;;;;;;;;25.70;34.43;98450.69;5033497;28;19936;-90
2023/10/08 08:57:39;;;;;;;;;;;;;;;27.13;31.34;98462.38;5018933;28;20317;-93
2023/10/08 09:00:10;;;;;;;;;;;;;;;26.31;32.68;98462.13;5018960;28;19945;-94
2023/10/08 09:02:40;;;;;;;;;;;;;;;24.91;34.93;98452.75;5007832;28;19968;-88
2023/10/08 09:05:25;;;;;;;;;;;;;;;24.54;34.81;98468.66;5012847;28;19925;-91
2023/10/08 09:08:05;;;;;;;;;;;;;;;24.41;34.59;98469.69;5011096;28;19922;-89
2023/10/08 09:10:36;;;;;;;;;;;;;;;25.06;34.37;98456.88;5010638;28;20415;-91
2023/10/08 09:13:07;;;;;;;;;;;;;;;25.41;34.37;98465.34;5011906;28;19943;-90
2023/10/08 09:15:33;;;;;;;;;;;;;;;25.70;33.45;98474.00;5007349;28;19961;-90
2023/10/08 09:18:06;;;;;;;;;;;;;;;26.05;32.32;98483.66;5011679;28;19921;-88
2023/10/08 09:20:42;;;;;;;;;;;;;;;25.54;33.76;98475.97;5002776;28;19922;-88
2023/10/08 09:23:11;;;;;;;;;;;;;;;25.24;36.17;98472.16;5010380;28;19918;-88
2023/10/08 09:25:38;;;;;;;;;;;;;;;25.01;35.78;98480.66;5011861;28;20048;-90
2023/10/08 09:28:07;;;;;;;;;;;;;;;26.04;32.76;98471.59;5014753;28;20274;-89
2023/10/08 09:30:39;;;;;;;;;;;;;;;24.98;33.82;98475.88;5014184;28;19925;-87
2023/10/08 09:33:07;;;;;;;;;;;;;;;25.82;34.75;98478.97;5014552;28;20317;-86
2023/10/08 09:35:33;;;;;;;;;;;;;;;23.16;38.22;98497.06;5010296;28;19928;-87
2023/10/08 09:38:02;;;;;;;;;;;;;;;23.64;34.72;98497.66;5009104;28;20365;-86
2023/10/08 09:40:29;;;;;;;;;;;;;;;24.47;34.36;98496.84;5009933;28;19922;-86
2023/10/08 09:42:55;;;;;;;;;;;;;;;24.08;35.75;98501.50;5006418;28;20397;-87
2023/10/08 09:45:22;;;;;;;;;;;;;;;25.22;31.53;98499.91;5011487;28;20480;-87
2023/10/08 09:47:55;;;;;;;;;;;;;;;24.86;36.74;98489.75;5013176;28;19937;-86
2023/10/08 09:50:27;;;;;;;;;;;;;;;25.88;30.43;98496.88;5007564;28;20360;-87
2023/10/08 09:53:19;;;;;;;;;;;;;;;27.58;27.59;98496.16;5011025;28;19922;-87
2023/10/08 09:55:50;;;;;;;;;;;;;;;27.48;29.34;98500.09;5009354;28;20452;-87
2023/10/08 09:58:17;;;;;;;;;;;;;;;27.16;27.77;98514.28;5007788;28;20024;-88
2023/10/08 10:00:44;;;;;;;;;;;;;;;26.08;29.67;98508.91;5013235;28;19929;-88
2023/10/08 10:03:12;;;;;;;;;;;;;;;25.59;31.45;98520.47;5017937;28;20387;-87
2023/10/08 10:05:38;;;;;;;;;;;;;;;24.45;33.22;98516.13;5009277;28;19922;-86
2023/10/08 10:08:09;;;;;;;;;;;;;;;24.69;31.67;98526.13;5012949;28;19933;-87
2023/10/08 10:10:38;;;;;;;;;;;;;;;25.53;30.57;98523.00;5010090;28;20031;-87
2023/10/08 10:13:04;;;;;;;;;;;;;;;25.21;29.04;98520.00;5020729;28;19921;-87
2023/10/08 10:15:34;;;;;;;;;;;;;;;24.85;32.78;98514.25;5021711;28;19926;-85
2023/10/08 10:18:20;;;;;;;;;;;;;;;25.31;28.52;98516.19;5010624;28;20008;-85
2023/10/08 10:21:00;;;;;;;;;;;;;;;25.89;26.76;98515.38;5010593;28;19937;-85
2023/10/08 10:23:36;;;;;;;;;;;;;;;24.44;29.64;98525.75;5012941;28;19921;-85
2023/10/08 10:26:03;;;;;;;;;;;;;;;25.97;26.77;98522.44;5008812;28;19922;-85
2023/10/08 10:28:29;;;;;;;;;;;;;;;25.96;30.43;98528.47;5008343;28;20301;-84
2023/10/08 10:30:56;;;;;;;;;;;;;;;25.99;27.05;98539.66;5014261;28;19961;-88
2023/10/08 10:33:29;;;;;;;;;;;;;;;25.96;26.64;98543.34;5013010;28;19929;-87
2023/10/08 10:35:55;;;;;;;;;;;;;;;25.55;29.38;98537.41;5011378;28;19922;-87
2023/10/08 10:38:26;;;;;;;;;;;;;;;25.51;27.08;98544.34;5014104;28;20301;-85
2023/10/08 10:40:58;;;;;;;;;;;;;;;25.35;30.88;98539.38;5014881;28;19917;-87
2023/10/08 10:43:32;;;;;;;;;;;;;;;26.31;28.89;98550.22;5008240;28;20016;-86
2023/10/08 10:46:19;;;;;;;;;;;;;;;25.45;30.52;98560.91;5007373;28;20317;-86
2023/10/08 10:48:57;;;;;;;;;;;;;;;26.22;27.78;98560.50;5013872;28;19925;-84
2023/10/08 10:51:23;;;;;;;;;;;;;;;25.00;25.31;98566.16;5010113;28;20308;-83
2023/10/08 10:54:02;;;;;;;;;;;;;;;25.79;29.99;98569.06;5010074;28;19925;-84
2023/10/08 10:56:31;;;;;;;;;;;;;;;24.99;26.91;98560.97;5017536;28;20407;-85
2023/10/08 10:59:15;;;;;;;;;;;;;;;27.09;23.05;98570.84;5011156;28;20348;-85
2023/10/08 11:01:46;;;;;;;;;;;;;;;25.35;24.72;98559.88;5016895;28;19925;-86
2023/10/08 11:04:19;;;;;;;;;;;;;;;25.55;25.37;98561.94;5018180;28;19932;-87
2023/10/08 11:06:47;;;;;;;;;;;;;;;26.02;22.83;98558.47;5013492;28;19921;-88
2023/10/08 11:09:15;;;;;;;;;;;;;;;24.96;30.79;98573.84;5012026;28;19937;-87
2023/10/08 11:11:44;;;;;;;;;;;;;;;25.37;23.01;98571.47;5012824;28;19931;-86
2023/10/08 11:14:15;;;;;;;;;;;;;;;25.84;23.90;98571.34;5015807;28;20332;-86
2023/10/08 11:16:43;;;;;;;;;;;;;;;26.56;21.64;98578.56;5011556;28;19925;-87
2023/10/08 11:19:09;;;;;;;;;;;;;;;27.80;21.07;98575.31;5009343;28;20297;-86
2023/10/08 11:21:48;;;;;;;;;;;;;;;28.08;21.03;98578.13;5003624;28;20419;-86
2023/10/08 11:24:24;;;;;;;;;;;;;;;28.60;21.25;98579.75;5008433;28;19928;-85
2023/10/08 11:27:06;;;;;;;;;;;;;;;24.57;25.73;98587.72;5008423;28;19928;-88
2023/10/08 11:29:32;;;;;;;;;;;;;;;23.25;26.94;98592.59;5008269;28;20019;-89
2023/10/08 11:32:00;;;;;;;;;;;;;;;21.70;33.53;98588.09;5004115;28;19922;-87
2023/10/08 11:34:38;;;;;;;;;;;;;;;22.81;26.72;98585.03;5003409;28;19989;-90
2023/10/08 11:37:19;;;;;;;;;;;;;;;23.64;26.04;98595.00;5006492;28;20385;-88
2023/10/08 11:39:46;;;;;;;;;;;;;;;24.54;26.72;98585.75;5003804;28;19964;-88
2023/10/08 11:44:59;;;;;;;;;;;;;;;28.54;20.71;98582.31;5003555;28;19967;-87
2023/10/08 11:47:31;;;;;;;;;;;;;;;27.09;22.75;98584.94;5005543;28;19996;-86
2023/10/08 11:50:17;;;;;;;;;;;;;;;25.10;25.10;98584.84;5010225;28;19945;-86
2023/10/08 11:52:43;;;;;;;;;;;;;;;23.77;32.92;98608.06;5015607;28;19921;-85
2023/10/08 11:55:10;;;;;;;;;;;;;;;23.61;28.56;98610.66;5005055;28;20307;-88
2023/10/08 11:57:36;;;;;;;;;;;;;;;23.80;24.30;98620.44;5009421;28;19976;-87
2023/10/08 12:00:17;;;;;;;;;;;;;;;24.45;22.66;98616.38;5004575;28;19922;-90
2023/10/08 12:02:43;;;;;;;;;;;;;;;25.97;22.44;98611.69;5007018;28;19951;-89
2023/10/08 12:05:18;;;;;;;;;;;;;;;24.77;23.52;98604.66;5009554;28;19929;-87
2023/10/08 12:07:48;;;;;;;;;;;;;;;23.72;27.91;98616.94;5008236;28;19921;-85
2023/10/08 12:10:16;;;;;;;;;;;;;;;24.07;28.46;98615.72;5011817;28;19996;-88
2023/10/08 12:12:45;;;;;;;;;;;;;;;24.98;25.83;98613.53;5004307;28;19929;-90
2023/10/08 12:15:18;;;;;;;;;;;;;;;26.50;24.77;98622.56;5005230;28;19921;-88
2023/10/08 12:17:47;;;;;;;;;;;;;;;26.36;23.88;98620.09;5013209;28;19968;-88
2023/10/08 12:20:22;;;;;;;;;;;;;;;25.59;25.86;98624.50;5011794;28;19925;-87
2023/10/08 12:22:49;;;;;;;;;;;;;;;26.05;21.15;98622.34;5013751;28;20377;-89
2023/10/08 12:25:15;;;;;;;;;;;;;;;26.28;24.30;98617.88;5016883;28;19922;-90
2023/10/08 12:27:41;;;;;;;;;;;;;;;26.87;20.05;98631.78;5003692;28;19926;-90
2023/10/08 12:30:11;;;;;;;;;;;;;;;24.77;26.12;98629.94;5007438;28;19921;-91
2023/10/08 12:32:40;;;;;;;;;;;;;;;24.00;31.19;98641.03;5007417;28;19921;-88
2023/10/08 12:35:12;;;;;;;;;;;;;;;24.23;24.16;98643.94;5006663;28;20377;-89
2023/10/08 12:37:39;;;;;;;;;;;;;;;25.60;23.23;98632.50;5012035;28;19925;-86
2023/10/08 12:40:12;;;;;;;;;;;;;;;26.02;24.22;98642.13;5021295;28;19951;-85
2023/10/08 12:42:44;;;;;;;;;;;;;;;25.19;26.92;98644.09;5006673;28;19918;-90
2023/10/08 12:45:12;;;;;;;;;;;;;;;25.39;23.74;98644.16;5010664;28;20026;-90
2023/10/08 12:47:38;;;;;;;;;;;;;;;25.93;23.50;98634.25;5006120;28;19917;-88
2023/10/08 12:50:07;;;;;;;;;;;;;;;27.01;19.31;98632.22;5004020;28;20017;-86
2023/10/08 12:52:36;;;;;;;;;;;;;;;26.89;18.60;98640.59;5015037;28;20388;-86
2023/10/08 12:55:06;;;;;;;;;;;;;;;25.29;26.63;98643.13;5012350;28;19984;-88
2023/10/08 12:57:34;;;;;;;;;;;;;;;24.43;30.62;98642.09;5005544;28;19926;-86
2023/10/08 13:00:00;;;;;;;;;;;;;;;25.95;23.85;98645.09;5006662;28;20533;-90
2023/10/08 13:02:28;;;;;;;;;;;;;;;25.87;21.85;98641.63;5004961;28;19921;-93
2023/10/08 13:04:59;;;;;;;;;;;;;;;26.62;19.29;98638.00;5005803;28;19949;-90
2023/10/08 13:07:26;;;;;;;;;;;;;;;26.28;22.58;98634.78;4999981;28;19925;-89
2023/10/08 13:09:52;;;;;;;;;;;;;;;25.24;22.85;98645.59;5013834;28;19921;-87
2023/10/08 13:12:18;;;;;;;;;;;;;;;25.27;25.90;98647.56;5013863;28;19976;-92
2023/10/08 13:14:44;;;;;;;;;;;;;;;25.97;24.51;98645.44;5006172;28;19925;-86
2023/10/08 13:17:11;;;;;;;;;;;;;;;24.91;21.97;98667.03;5015038;28;19921;-87
2023/10/08 13:19:37;;;;;;;;;;;;;;;25.25;21.45;98650.03;5008222;28;20401;-87
2023/10/08 13:22:06;;;;;;;;;;;;;;;25.02;25.34;98662.03;5008597;28;20334;-87
2023/10/08 13:24:33;;;;;;;;;;;;;;;25.90;19.66;98659.66;5009601;28;19917;-89
2023/10/08 13:26:59;;;;;;;;;;;;;;;27.01;20.76;98668.06;5013427;28;19922;-87
2023/10/08 13:29:32;;;;;;;;;;;;;;;25.63;20.69;98675.84;5012428;28;19937;-89
2023/10/08 13:31:58;;;;;;;;;;;;;;;25.97;20.14;98676.41;5005936;28;19965;-89
2023/10/08 13:34:26;;;;;;;;;;;;;;;26.86;18.67;98684.56;5009835;28;19979;-89
2023/10/08 13:36:52;;;;;;;;;;;;;;;26.56;24.95;98679.97;5013296;28;19964;-88
2023/10/08 13:39:18;;;;;;;;;;;;;;;26.61;20.12;98689.91;5012009;28;19928;-88
2023/10/08 13:41:47;;;;;;;;;;;;;;;26.05;19.99;98678.63;5010509;28;19921;-90
2023/10/08 13:44:14;;;;;;;;;;;;;;;24.45;26.98;98697.78;4995146;28;20045;-89
2023/10/08 13:46:48;;;;;;;;;;;;;;;24.77;27.02;98678.50;5012921;28;19959;-88
2023/10/08 13:49:16;;;;;;;;;;;;;;;25.37;20.58;98691.53;5006054;28;20297;-91
2023/10/08 13:51:44;;;;;;;;;;;;;;;25.66;21.19;98694.69;5009026;28;20007;-92
2023/10/08 13:54:10;;;;;;;;;;;;;;;24.23;28.36;98708.50;5011052;28;19928;-85
2023/10/08 13:56:42;;;;;;;;;;;;;;;24.07;26.74;98708.28;5009965;28;19929;-88
2023/10/08 14:05:15;;;;;;;;;;;;;;;25.83;20.96;98721.69;5006632;28;19940;-89
2023/10/08 14:07:44;;;;;;;;;;;;;;;24.93;21.19;98726.41;5010173;28;20008;-89
2023/10/08 14:10:18;;;;;;;;;;;;;;;26.47;18.73;98719.19;5007514;28;19988;-90
2023/10/08 14:12:48;;;;;;;;;;;;;;;27.19;18.19;98719.97;5009133;28;19922;-91
2023/10/08 14:15:16;;;;;;;;;;;;;;;26.26;22.87;98719.66;5007857;28;20281;-86
2023/10/08 14:17:43;;;;;;;;;;;;;;;25.41;23.95;98723.22;5002976;28;20036;-86